sensor_id;sensor_type;location;lat;lon;timestamp;P1;durP1;ratioP1;P2;durP2;ratioP2
42912;SDS011;50720;54.324;18.558;2023-03-20T00:00:02;103.80;;;62.95;;
42912;SDS011;50720;54.324;18.558;2023-03-20T00:02:54;111.65;;;68.80;;
42912;SDS011;50720;54.324;18.558;2023-03-20T00:05:25;113.00;;;65.68;;
42912;SDS011;50720;54.324;18.558;2023-03-20T00:07:56;102.13;;;64.47;;
42912;SDS011;50720;54.324;18.558;2023-03-20T00:10:29;103.47;;;63.85;;
42912;SDS011;50720;54.324;18.558;2023-03-20T00:13:05;101.28;;;61.83;;
42912;SDS011;50720;54.324;18.558;2023-03-20T00:15:40;97.43;;;62.15;;
42912;SDS011;50720;54.324;18.558;2023-03-20T00:18:12;104.53;;;63.85;;
42912;SDS011;50720;54.324;18.558;2023-03-20T00:20:46;104.40;;;65.40;;
42912;SDS011;50720;54.324;18.558;2023-03-20T00:25:47;102.00;;;59.47;;
42912;SDS011;50720;54.324;18.558;2023-03-20T00:28:29;102.35;;;61.13;;
42912;SDS011;50720;54.324;18.558;2023-03-20T00:31:13;104.47;;;62.45;;
42912;SDS011;50720;54.324;18.558;2023-03-20T00:33:48;105.70;;;61.92;;
42912;SDS011;50720;54.324;18.558;2023-03-20T00:36:18;99.43;;;62.70;;
42912;SDS011;50720;54.324;18.558;2023-03-20T00:38:47;103.30;;;62.92;;
42912;SDS011;50720;54.324;18.558;2023-03-20T00:41:20;105.90;;;64.60;;
42912;SDS011;50720;54.324;18.558;2023-03-20T00:43:54;108.38;;;65.60;;
42912;SDS011;50720;54.324;18.558;2023-03-20T00:46:25;98.53;;;60.67;;
42912;SDS011;50720;54.324;18.558;2023-03-20T00:48:56;101.05;;;61.67;;
42912;SDS011;50720;54.324;18.558;2023-03-20T00:51:28;106.15;;;59.03;;
42912;SDS011;50720;54.324;18.558;2023-03-20T00:53:58;94.37;;;59.90;;
42912;SDS011;50720;54.324;18.558;2023-03-20T00:56:30;101.82;;;61.15;;
42912;SDS011;50720;54.324;18.558;2023-03-20T00:59:03;109.75;;;63.13;;
42912;SDS011;50720;54.324;18.558;2023-03-20T01:01:34;99.63;;;62.58;;
42912;SDS011;50720;54.324;18.558;2023-03-20T01:04:04;105.60;;;64.57;;
42912;SDS011;50720;54.324;18.558;2023-03-20T01:06:38;105.10;;;62.00;;
42912;SDS011;50720;54.324;18.558;2023-03-20T01:09:08;111.85;;;63.05;;
42912;SDS011;50720;54.324;18.558;2023-03-20T01:11:39;99.95;;;60.53;;
42912;SDS011;50720;54.324;18.558;2023-03-20T01:14:12;99.57;;;59.83;;
42912;SDS011;50720;54.324;18.558;2023-03-20T01:16:44;101.07;;;59.97;;
42912;SDS011;50720;54.324;18.558;2023-03-20T01:19:13;110.35;;;60.28;;
42912;SDS011;50720;54.324;18.558;2023-03-20T01:21:44;108.57;;;60.58;;
42912;SDS011;50720;54.324;18.558;2023-03-20T01:24:13;100.78;;;60.08;;
42912;SDS011;50720;54.324;18.558;2023-03-20T01:26:43;100.80;;;60.97;;
42912;SDS011;50720;54.324;18.558;2023-03-20T01:29:17;96.88;;;59.40;;
42912;SDS011;50720;54.324;18.558;2023-03-20T01:31:48;107.05;;;61.65;;
42912;SDS011;50720;54.324;18.558;2023-03-20T01:34:19;107.97;;;61.75;;
42912;SDS011;50720;54.324;18.558;2023-03-20T01:36:50;93.03;;;58.83;;
42912;SDS011;50720;54.324;18.558;2023-03-20T01:39:22;97.53;;;59.08;;
42912;SDS011;50720;54.324;18.558;2023-03-20T01:42:00;91.20;;;58.45;;
42912;SDS011;50720;54.324;18.558;2023-03-20T01:47:05;90.68;;;55.03;;
42912;SDS011;50720;54.324;18.558;2023-03-20T01:53:02;84.93;;;52.33;;
42912;SDS011;50720;54.324;18.558;2023-03-20T01:55:36;84.00;;;51.17;;
42912;SDS011;50720;54.324;18.558;2023-03-20T01:58:09;90.68;;;55.33;;
42912;SDS011;50720;54.324;18.558;2023-03-20T02:00:42;83.97;;;52.83;;
42912;SDS011;50720;54.324;18.558;2023-03-20T02:03:15;78.82;;;52.75;;
42912;SDS011;50720;54.324;18.558;2023-03-20T02:08:17;71.90;;;45.17;;
42912;SDS011;50720;54.324;18.558;2023-03-20T02:10:51;68.10;;;42.15;;
42912;SDS011;50720;54.324;18.558;2023-03-20T02:13:23;70.75;;;40.55;;
42912;SDS011;50720;54.324;18.558;2023-03-20T02:15:58;61.88;;;39.17;;
42912;SDS011;50720;54.324;18.558;2023-03-20T02:18:30;62.67;;;38.78;;
42912;SDS011;50720;54.324;18.558;2023-03-20T02:24:08;55.88;;;35.53;;
42912;SDS011;50720;54.324;18.558;2023-03-20T02:27:00;58.83;;;35.05;;
42912;SDS011;50720;54.324;18.558;2023-03-20T02:29:47;58.38;;;36.35;;
42912;SDS011;50720;54.324;18.558;2023-03-20T02:38:59;55.72;;;33.97;;
42912;SDS011;50720;54.324;18.558;2023-03-20T02:41:49;50.72;;;33.20;;
42912;SDS011;50720;54.324;18.558;2023-03-20T02:44:25;44.90;;;33.17;;
42912;SDS011;50720;54.324;18.558;2023-03-20T02:47:04;53.78;;;34.08;;
42912;SDS011;50720;54.324;18.558;2023-03-20T02:49:46;52.97;;;35.78;;
42912;SDS011;50720;54.324;18.558;2023-03-20T02:52:24;52.78;;;33.53;;
42912;SDS011;50720;54.324;18.558;2023-03-20T02:55:05;51.70;;;32.47;;
42912;SDS011;50720;54.324;18.558;2023-03-20T02:57:45;50.85;;;32.22;;
42912;SDS011;50720;54.324;18.558;2023-03-20T03:00:21;48.58;;;33.08;;
42912;SDS011;50720;54.324;18.558;2023-03-20T03:02:56;48.63;;;30.98;;
42912;SDS011;50720;54.324;18.558;2023-03-20T03:05:31;50.63;;;33.22;;
42912;SDS011;50720;54.324;18.558;2023-03-20T03:08:06;51.58;;;32.05;;
42912;SDS011;50720;54.324;18.558;2023-03-20T03:10:42;53.35;;;32.55;;
42912;SDS011;50720;54.324;18.558;2023-03-20T03:13:16;45.55;;;31.90;;
42912;SDS011;50720;54.324;18.558;2023-03-20T03:15:53;47.95;;;31.00;;
42912;SDS011;50720;54.324;18.558;2023-03-20T03:18:29;46.95;;;31.55;;
42912;SDS011;50720;54.324;18.558;2023-03-20T03:21:02;45.42;;;30.90;;
42912;SDS011;50720;54.324;18.558;2023-03-20T03:23:35;47.22;;;29.40;;
42912;SDS011;50720;54.324;18.558;2023-03-20T03:26:11;46.40;;;30.30;;
42912;SDS011;50720;54.324;18.558;2023-03-20T03:28:43;47.20;;;31.23;;
42912;SDS011;50720;54.324;18.558;2023-03-20T03:31:17;48.72;;;32.38;;
42912;SDS011;50720;54.324;18.558;2023-03-20T03:33:49;49.53;;;30.80;;
42912;SDS011;50720;54.324;18.558;2023-03-20T03:36:23;45.17;;;28.77;;
42912;SDS011;50720;54.324;18.558;2023-03-20T03:39:04;45.10;;;29.70;;
42912;SDS011;50720;54.324;18.558;2023-03-20T03:41:43;48.72;;;29.92;;
42912;SDS011;50720;54.324;18.558;2023-03-20T03:44:19;47.35;;;30.83;;
42912;SDS011;50720;54.324;18.558;2023-03-20T03:46:56;45.38;;;29.95;;
42912;SDS011;50720;54.324;18.558;2023-03-20T03:49:31;46.80;;;29.40;;
42912;SDS011;50720;54.324;18.558;2023-03-20T03:52:04;46.88;;;29.83;;
42912;SDS011;50720;54.324;18.558;2023-03-20T03:54:40;40.35;;;28.90;;
42912;SDS011;50720;54.324;18.558;2023-03-20T03:57:18;41.03;;;28.58;;
42912;SDS011;50720;54.324;18.558;2023-03-20T03:59:51;42.15;;;29.10;;
42912;SDS011;50720;54.324;18.558;2023-03-20T04:04:54;43.33;;;27.35;;
42912;SDS011;50720;54.324;18.558;2023-03-20T04:07:25;38.40;;;26.50;;
42912;SDS011;50720;54.324;18.558;2023-03-20T04:09:58;40.47;;;27.33;;
42912;SDS011;50720;54.324;18.558;2023-03-20T04:12:33;38.80;;;26.33;;
42912;SDS011;50720;54.324;18.558;2023-03-20T04:15:04;37.67;;;25.13;;
42912;SDS011;50720;54.324;18.558;2023-03-20T04:17:36;38.67;;;26.77;;
42912;SDS011;50720;54.324;18.558;2023-03-20T04:20:07;39.33;;;24.27;;
42912;SDS011;50720;54.324;18.558;2023-03-20T04:22:38;34.60;;;24.25;;
42912;SDS011;50720;54.324;18.558;2023-03-20T04:25:13;40.33;;;25.37;;
42912;SDS011;50720;54.324;18.558;2023-03-20T04:27:45;36.63;;;24.95;;
42912;SDS011;50720;54.324;18.558;2023-03-20T04:30:15;41.58;;;26.55;;
42912;SDS011;50720;54.324;18.558;2023-03-20T04:32:45;40.20;;;24.48;;
42912;SDS011;50720;54.324;18.558;2023-03-20T04:35:15;36.13;;;25.47;;
42912;SDS011;50720;54.324;18.558;2023-03-20T04:37:45;33.30;;;24.05;;
42912;SDS011;50720;54.324;18.558;2023-03-20T04:40:15;39.55;;;23.95;;
42912;SDS011;50720;54.324;18.558;2023-03-20T04:42:48;35.42;;;24.20;;
42912;SDS011;50720;54.324;18.558;2023-03-20T04:45:18;39.20;;;23.92;;
42912;SDS011;50720;54.324;18.558;2023-03-20T04:47:48;39.88;;;23.63;;
42912;SDS011;50720;54.324;18.558;2023-03-20T04:50:18;36.03;;;23.95;;
42912;SDS011;50720;54.324;18.558;2023-03-20T04:52:47;38.83;;;23.38;;
42912;SDS011;50720;54.324;18.558;2023-03-20T04:55:17;40.42;;;24.17;;
42912;SDS011;50720;54.324;18.558;2023-03-20T05:00:19;31.48;;;21.77;;
42912;SDS011;50720;54.324;18.558;2023-03-20T05:02:49;31.98;;;21.00;;
42912;SDS011;50720;54.324;18.558;2023-03-20T05:05:19;38.75;;;21.40;;
42912;SDS011;50720;54.324;18.558;2023-03-20T05:07:49;34.78;;;23.38;;
42912;SDS011;50720;54.324;18.558;2023-03-20T05:10:19;30.27;;;21.27;;
42912;SDS011;50720;54.324;18.558;2023-03-20T05:12:51;34.92;;;23.38;;
42912;SDS011;50720;54.324;18.558;2023-03-20T05:15:20;39.08;;;23.38;;
42912;SDS011;50720;54.324;18.558;2023-03-20T05:17:50;34.38;;;22.63;;
42912;SDS011;50720;54.324;18.558;2023-03-20T05:20:23;33.67;;;23.30;;
42912;SDS011;50720;54.324;18.558;2023-03-20T05:22:53;36.72;;;22.80;;
42912;SDS011;50720;54.324;18.558;2023-03-20T05:25:23;40.33;;;24.20;;
42912;SDS011;50720;54.324;18.558;2023-03-20T05:27:54;32.75;;;22.63;;
42912;SDS011;50720;54.324;18.558;2023-03-20T05:30:24;33.15;;;22.70;;
42912;SDS011;50720;54.324;18.558;2023-03-20T05:32:54;35.20;;;22.05;;
42912;SDS011;50720;54.324;18.558;2023-03-20T05:35:24;31.33;;;22.90;;
42912;SDS011;50720;54.324;18.558;2023-03-20T05:37:54;30.58;;;22.55;;
42912;SDS011;50720;54.324;18.558;2023-03-20T05:40:24;30.53;;;22.43;;
42912;SDS011;50720;54.324;18.558;2023-03-20T05:42:55;34.50;;;21.15;;
42912;SDS011;50720;54.324;18.558;2023-03-20T05:45:25;35.97;;;22.42;;
42912;SDS011;50720;54.324;18.558;2023-03-20T05:47:54;33.28;;;21.90;;
42912;SDS011;50720;54.324;18.558;2023-03-20T05:50:24;31.67;;;22.25;;
42912;SDS011;50720;54.324;18.558;2023-03-20T05:52:53;34.08;;;23.98;;
42912;SDS011;50720;54.324;18.558;2023-03-20T05:55:23;31.23;;;21.45;;
42912;SDS011;50720;54.324;18.558;2023-03-20T05:57:53;29.00;;;20.60;;
42912;SDS011;50720;54.324;18.558;2023-03-20T06:00:25;33.22;;;22.42;;
42912;SDS011;50720;54.324;18.558;2023-03-20T06:02:54;29.23;;;20.30;;
42912;SDS011;50720;54.324;18.558;2023-03-20T06:05:24;28.08;;;20.17;;
42912;SDS011;50720;54.324;18.558;2023-03-20T06:07:54;29.63;;;20.15;;
42912;SDS011;50720;54.324;18.558;2023-03-20T06:10:24;27.27;;;19.13;;
42912;SDS011;50720;54.324;18.558;2023-03-20T06:12:55;26.90;;;19.02;;
42912;SDS011;50720;54.324;18.558;2023-03-20T06:15:27;33.67;;;20.33;;
42912;SDS011;50720;54.324;18.558;2023-03-20T06:17:57;25.63;;;19.98;;
42912;SDS011;50720;54.324;18.558;2023-03-20T06:20:27;28.10;;;19.58;;
42912;SDS011;50720;54.324;18.558;2023-03-20T06:22:56;26.63;;;19.63;;
42912;SDS011;50720;54.324;18.558;2023-03-20T06:25:26;30.15;;;19.77;;
42912;SDS011;50720;54.324;18.558;2023-03-20T06:27:57;28.70;;;21.20;;
42912;SDS011;50720;54.324;18.558;2023-03-20T06:30:27;26.73;;;18.02;;
42912;SDS011;50720;54.324;18.558;2023-03-20T06:32:56;29.23;;;19.00;;
42912;SDS011;50720;54.324;18.558;2023-03-20T06:35:27;25.98;;;18.50;;
42912;SDS011;50720;54.324;18.558;2023-03-20T06:37:57;23.27;;;18.15;;
42912;SDS011;50720;54.324;18.558;2023-03-20T06:40:28;34.60;;;21.23;;
42912;SDS011;50720;54.324;18.558;2023-03-20T06:42:59;27.25;;;19.50;;
42912;SDS011;50720;54.324;18.558;2023-03-20T06:45:29;23.73;;;17.23;;
42912;SDS011;50720;54.324;18.558;2023-03-20T06:47:59;26.65;;;18.17;;
42912;SDS011;50720;54.324;18.558;2023-03-20T06:50:29;28.90;;;18.33;;
42912;SDS011;50720;54.324;18.558;2023-03-20T06:52:59;25.33;;;16.73;;
42912;SDS011;50720;54.324;18.558;2023-03-20T06:55:29;27.25;;;16.58;;
42912;SDS011;50720;54.324;18.558;2023-03-20T06:58:00;23.80;;;16.73;;
42912;SDS011;50720;54.324;18.558;2023-03-20T07:00:30;22.20;;;17.23;;
42912;SDS011;50720;54.324;18.558;2023-03-20T07:03:00;21.58;;;15.73;;
42912;SDS011;50720;54.324;18.558;2023-03-20T07:05:30;27.35;;;15.25;;
42912;SDS011;50720;54.324;18.558;2023-03-20T07:08:00;20.35;;;15.20;;
42912;SDS011;50720;54.324;18.558;2023-03-20T07:10:37;19.50;;;13.88;;
42912;SDS011;50720;54.324;18.558;2023-03-20T07:13:08;22.55;;;14.68;;
42912;SDS011;50720;54.324;18.558;2023-03-20T07:15:38;21.92;;;14.55;;
42912;SDS011;50720;54.324;18.558;2023-03-20T07:18:27;23.33;;;14.02;;
42912;SDS011;50720;54.324;18.558;2023-03-20T07:20:57;22.35;;;14.27;;
42912;SDS011;50720;54.324;18.558;2023-03-20T07:23:29;25.80;;;14.48;;
42912;SDS011;50720;54.324;18.558;2023-03-20T07:26:00;23.40;;;14.55;;
42912;SDS011;50720;54.324;18.558;2023-03-20T07:28:32;21.35;;;15.43;;
42912;SDS011;50720;54.324;18.558;2023-03-20T07:31:03;25.85;;;15.18;;
42912;SDS011;50720;54.324;18.558;2023-03-20T07:33:32;25.23;;;16.02;;
42912;SDS011;50720;54.324;18.558;2023-03-20T07:36:02;21.07;;;13.93;;
42912;SDS011;50720;54.324;18.558;2023-03-20T07:38:33;27.60;;;13.75;;
42912;SDS011;50720;54.324;18.558;2023-03-20T07:41:03;20.17;;;13.23;;
42912;SDS011;50720;54.324;18.558;2023-03-20T07:43:37;21.63;;;14.45;;
42912;SDS011;50720;54.324;18.558;2023-03-20T07:46:09;19.75;;;15.10;;
42912;SDS011;50720;54.324;18.558;2023-03-20T07:48:38;23.13;;;16.67;;
42912;SDS011;50720;54.324;18.558;2023-03-20T07:51:08;27.65;;;14.57;;
42912;SDS011;50720;54.324;18.558;2023-03-20T07:53:37;19.17;;;13.07;;
42912;SDS011;50720;54.324;18.558;2023-03-20T07:56:09;21.17;;;14.93;;
42912;SDS011;50720;54.324;18.558;2023-03-20T07:58:42;19.65;;;13.88;;
42912;SDS011;50720;54.324;18.558;2023-03-20T08:01:17;19.77;;;15.25;;
42912;SDS011;50720;54.324;18.558;2023-03-20T08:03:47;27.48;;;16.48;;
42912;SDS011;50720;54.324;18.558;2023-03-20T08:06:17;25.88;;;16.75;;
42912;SDS011;50720;54.324;18.558;2023-03-20T08:08:46;24.58;;;15.85;;
42912;SDS011;50720;54.324;18.558;2023-03-20T08:11:19;23.95;;;17.05;;
42912;SDS011;50720;54.324;18.558;2023-03-20T08:13:50;23.40;;;16.30;;
42912;SDS011;50720;54.324;18.558;2023-03-20T08:16:20;27.42;;;18.02;;
42912;SDS011;50720;54.324;18.558;2023-03-20T08:18:49;24.00;;;17.02;;
42912;SDS011;50720;54.324;18.558;2023-03-20T08:21:20;25.13;;;17.17;;
42912;SDS011;50720;54.324;18.558;2023-03-20T08:23:49;25.92;;;17.33;;
42912;SDS011;50720;54.324;18.558;2023-03-20T08:26:19;24.73;;;18.17;;
42912;SDS011;50720;54.324;18.558;2023-03-20T08:28:51;25.55;;;17.92;;
42912;SDS011;50720;54.324;18.558;2023-03-20T08:31:21;28.58;;;18.73;;
42912;SDS011;50720;54.324;18.558;2023-03-20T08:33:50;30.83;;;18.05;;
42912;SDS011;50720;54.324;18.558;2023-03-20T08:36:20;26.15;;;17.85;;
42912;SDS011;50720;54.324;18.558;2023-03-20T08:38:50;27.33;;;18.70;;
42912;SDS011;50720;54.324;18.558;2023-03-20T08:41:20;27.25;;;19.98;;
42912;SDS011;50720;54.324;18.558;2023-03-20T08:43:51;28.98;;;19.90;;
42912;SDS011;50720;54.324;18.558;2023-03-20T08:46:20;30.05;;;19.55;;
42912;SDS011;50720;54.324;18.558;2023-03-20T08:48:50;26.02;;;17.83;;
42912;SDS011;50720;54.324;18.558;2023-03-20T08:51:20;26.10;;;19.30;;
42912;SDS011;50720;54.324;18.558;2023-03-20T08:53:49;26.98;;;18.38;;
42912;SDS011;50720;54.324;18.558;2023-03-20T08:56:19;24.73;;;18.30;;
42912;SDS011;50720;54.324;18.558;2023-03-20T08:58:48;25.98;;;18.30;;
42912;SDS011;50720;54.324;18.558;2023-03-20T09:01:22;24.48;;;18.75;;
42912;SDS011;50720;54.324;18.558;2023-03-20T09:04:07;25.52;;;18.98;;
42912;SDS011;50720;54.324;18.558;2023-03-20T09:06:38;27.05;;;17.33;;
42912;SDS011;50720;54.324;18.558;2023-03-20T09:09:08;29.25;;;18.75;;
42912;SDS011;50720;54.324;18.558;2023-03-20T09:11:42;24.08;;;16.77;;
42912;SDS011;50720;54.324;18.558;2023-03-20T09:14:14;21.00;;;16.13;;
42912;SDS011;50720;54.324;18.558;2023-03-20T09:16:44;24.38;;;16.85;;
42912;SDS011;50720;54.324;18.558;2023-03-20T09:19:16;24.83;;;16.23;;
42912;SDS011;50720;54.324;18.558;2023-03-20T09:21:46;19.98;;;14.93;;
42912;SDS011;50720;54.324;18.558;2023-03-20T09:24:15;23.77;;;14.95;;
42912;SDS011;50720;54.324;18.558;2023-03-20T09:26:45;23.37;;;14.77;;
42912;SDS011;50720;54.324;18.558;2023-03-20T09:29:16;20.27;;;14.10;;
42912;SDS011;50720;54.324;18.558;2023-03-20T09:31:51;23.58;;;14.65;;
42912;SDS011;50720;54.324;18.558;2023-03-20T09:34:21;19.58;;;13.65;;
42912;SDS011;50720;54.324;18.558;2023-03-20T09:39:22;17.35;;;13.18;;
42912;SDS011;50720;54.324;18.558;2023-03-20T09:41:52;17.50;;;12.13;;
42912;SDS011;50720;54.324;18.558;2023-03-20T09:44:31;17.15;;;12.57;;
42912;SDS011;50720;54.324;18.558;2023-03-20T09:47:13;15.13;;;10.68;;
42912;SDS011;50720;54.324;18.558;2023-03-20T09:49:53;16.80;;;11.32;;
42912;SDS011;50720;54.324;18.558;2023-03-20T09:52:36;17.70;;;11.52;;
42912;SDS011;50720;54.324;18.558;2023-03-20T09:55:11;16.33;;;10.00;;
42912;SDS011;50720;54.324;18.558;2023-03-20T09:57:46;15.18;;;10.75;;
42912;SDS011;50720;54.324;18.558;2023-03-20T10:00:20;13.02;;;9.80;;
42912;SDS011;50720;54.324;18.558;2023-03-20T10:02:55;14.10;;;10.35;;
42912;SDS011;50720;54.324;18.558;2023-03-20T10:05:28;18.40;;;10.32;;
42912;SDS011;50720;54.324;18.558;2023-03-20T10:07:59;13.82;;;9.80;;
42912;SDS011;50720;54.324;18.558;2023-03-20T10:10:32;13.70;;;10.38;;
42912;SDS011;50720;54.324;18.558;2023-03-20T10:13:19;12.82;;;9.80;;
42912;SDS011;50720;54.324;18.558;2023-03-20T10:16:09;12.48;;;8.75;;
42912;SDS011;50720;54.324;18.558;2023-03-20T10:18:48;12.68;;;8.85;;
42912;SDS011;50720;54.324;18.558;2023-03-20T10:21:26;12.77;;;9.73;;
42912;SDS011;50720;54.324;18.558;2023-03-20T10:24:05;11.90;;;9.27;;
42912;SDS011;50720;54.324;18.558;2023-03-20T10:26:38;16.15;;;9.23;;
42912;SDS011;50720;54.324;18.558;2023-03-20T10:29:12;12.93;;;9.27;;
42912;SDS011;50720;54.324;18.558;2023-03-20T10:34:25;13.30;;;8.27;;
42912;SDS011;50720;54.324;18.558;2023-03-20T10:37:16;12.77;;;8.65;;
42912;SDS011;50720;54.324;18.558;2023-03-20T10:40:08;11.93;;;8.25;;
42912;SDS011;50720;54.324;18.558;2023-03-20T10:42:49;14.23;;;9.48;;
42912;SDS011;50720;54.324;18.558;2023-03-20T10:45:26;15.05;;;9.00;;
42912;SDS011;50720;54.324;18.558;2023-03-20T10:48:05;15.32;;;10.18;;
42912;SDS011;50720;54.324;18.558;2023-03-20T10:50:47;16.05;;;9.77;;
42912;SDS011;50720;54.324;18.558;2023-03-20T10:53:22;20.88;;;9.95;;
42912;SDS011;50720;54.324;18.558;2023-03-20T10:55:57;12.55;;;9.85;;
42912;SDS011;50720;54.324;18.558;2023-03-20T10:58:30;12.85;;;9.02;;
42912;SDS011;50720;54.324;18.558;2023-03-20T11:01:06;11.82;;;8.55;;
42912;SDS011;50720;54.324;18.558;2023-03-20T11:03:37;15.38;;;9.52;;
42912;SDS011;50720;54.324;18.558;2023-03-20T11:06:11;16.00;;;10.13;;
42912;SDS011;50720;54.324;18.558;2023-03-20T11:08:46;15.82;;;9.57;;
42912;SDS011;50720;54.324;18.558;2023-03-20T11:11:21;14.00;;;9.07;;
42912;SDS011;50720;54.324;18.558;2023-03-20T11:13:54;15.93;;;10.00;;
42912;SDS011;50720;54.324;18.558;2023-03-20T11:16:28;12.45;;;8.73;;
42912;SDS011;50720;54.324;18.558;2023-03-20T11:19:05;17.00;;;9.40;;
42912;SDS011;50720;54.324;18.558;2023-03-20T11:21:43;14.90;;;9.75;;
42912;SDS011;50720;54.324;18.558;2023-03-20T11:24:19;14.18;;;10.15;;
42912;SDS011;50720;54.324;18.558;2023-03-20T11:26:53;17.02;;;10.25;;
42912;SDS011;50720;54.324;18.558;2023-03-20T11:29:31;15.82;;;10.32;;
42912;SDS011;50720;54.324;18.558;2023-03-20T11:32:06;15.38;;;9.93;;
42912;SDS011;50720;54.324;18.558;2023-03-20T11:34:45;13.90;;;8.98;;
42912;SDS011;50720;54.324;18.558;2023-03-20T11:37:20;13.02;;;9.80;;
42912;SDS011;50720;54.324;18.558;2023-03-20T11:39:52;13.93;;;9.00;;
42912;SDS011;50720;54.324;18.558;2023-03-20T11:42:31;12.73;;;9.18;;
42912;SDS011;50720;54.324;18.558;2023-03-20T11:45:15;16.70;;;10.48;;
42912;SDS011;50720;54.324;18.558;2023-03-20T11:47:48;15.30;;;10.45;;
42912;SDS011;50720;54.324;18.558;2023-03-20T11:50:28;16.92;;;11.68;;
42912;SDS011;50720;54.324;18.558;2023-03-20T11:53:04;17.88;;;12.40;;
42912;SDS011;50720;54.324;18.558;2023-03-20T11:55:59;19.38;;;11.48;;
42912;SDS011;50720;54.324;18.558;2023-03-20T11:58:31;19.15;;;12.50;;
42912;SDS011;50720;54.324;18.558;2023-03-20T12:01:06;18.58;;;12.52;;
42912;SDS011;50720;54.324;18.558;2023-03-20T12:03:42;20.98;;;12.50;;
42912;SDS011;50720;54.324;18.558;2023-03-20T12:06:17;20.80;;;14.25;;
42912;SDS011;50720;54.324;18.558;2023-03-20T12:08:50;26.92;;;13.13;;
42912;SDS011;50720;54.324;18.558;2023-03-20T12:14:16;25.53;;;15.60;;
42912;SDS011;50720;54.324;18.558;2023-03-20T12:16:51;23.55;;;15.60;;
42912;SDS011;50720;54.324;18.558;2023-03-20T12:19:27;26.77;;;15.13;;
42912;SDS011;50720;54.324;18.558;2023-03-20T12:22:02;22.33;;;13.30;;
42912;SDS011;50720;54.324;18.558;2023-03-20T12:24:48;21.13;;;13.40;;
42912;SDS011;50720;54.324;18.558;2023-03-20T12:27:29;26.40;;;13.73;;
42912;SDS011;50720;54.324;18.558;2023-03-20T12:30:04;19.35;;;11.02;;
42912;SDS011;50720;54.324;18.558;2023-03-20T12:32:40;19.95;;;10.32;;
42912;SDS011;50720;54.324;18.558;2023-03-20T12:35:17;18.13;;;8.70;;
42912;SDS011;50720;54.324;18.558;2023-03-20T12:37:53;10.60;;;7.10;;
42912;SDS011;50720;54.324;18.558;2023-03-20T12:40:25;11.30;;;6.55;;
42912;SDS011;50720;54.324;18.558;2023-03-20T12:43:02;11.05;;;6.90;;
42912;SDS011;50720;54.324;18.558;2023-03-20T12:45:39;11.18;;;6.50;;
42912;SDS011;50720;54.324;18.558;2023-03-20T12:51:06;13.75;;;7.18;;
42912;SDS011;50720;54.324;18.558;2023-03-20T12:53:44;14.70;;;8.73;;
42912;SDS011;50720;54.324;18.558;2023-03-20T12:56:24;12.60;;;7.70;;
42912;SDS011;50720;54.324;18.558;2023-03-20T12:59:03;16.05;;;8.75;;
42912;SDS011;50720;54.324;18.558;2023-03-20T13:01:38;12.38;;;8.18;;
42912;SDS011;50720;54.324;18.558;2023-03-20T13:04:23;14.13;;;9.27;;
42912;SDS011;50720;54.324;18.558;2023-03-20T13:07:16;12.68;;;8.63;;
42912;SDS011;50720;54.324;18.558;2023-03-20T13:09:56;12.90;;;8.00;;
42912;SDS011;50720;54.324;18.558;2023-03-20T13:12:36;12.45;;;8.45;;
42912;SDS011;50720;54.324;18.558;2023-03-20T13:15:17;13.65;;;8.98;;
42912;SDS011;50720;54.324;18.558;2023-03-20T13:17:59;11.93;;;7.32;;
42912;SDS011;50720;54.324;18.558;2023-03-20T13:20:38;12.45;;;8.82;;
42912;SDS011;50720;54.324;18.558;2023-03-20T13:23:18;14.93;;;8.27;;
42912;SDS011;50720;54.324;18.558;2023-03-20T13:28:48;13.38;;;8.13;;
42912;SDS011;50720;54.324;18.558;2023-03-20T13:31:26;14.25;;;7.72;;
42912;SDS011;50720;54.324;18.558;2023-03-20T13:34:06;12.30;;;7.53;;
42912;SDS011;50720;54.324;18.558;2023-03-20T13:36:48;15.20;;;6.97;;
42912;SDS011;50720;54.324;18.558;2023-03-20T13:39:47;10.68;;;6.28;;
42912;SDS011;50720;54.324;18.558;2023-03-20T13:42:24;9.20;;;6.30;;
42912;SDS011;50720;54.324;18.558;2023-03-20T13:45:00;12.13;;;7.43;;
42912;SDS011;50720;54.324;18.558;2023-03-20T13:47:33;10.65;;;6.57;;
42912;SDS011;50720;54.324;18.558;2023-03-20T13:52:41;11.88;;;6.82;;
42912;SDS011;50720;54.324;18.558;2023-03-20T13:55:19;13.77;;;7.20;;
42912;SDS011;50720;54.324;18.558;2023-03-20T13:57:57;10.18;;;6.10;;
42912;SDS011;50720;54.324;18.558;2023-03-20T14:00:40;9.13;;;6.32;;
42912;SDS011;50720;54.324;18.558;2023-03-20T14:03:16;9.88;;;5.90;;
42912;SDS011;50720;54.324;18.558;2023-03-20T14:05:52;8.27;;;5.28;;
42912;SDS011;50720;54.324;18.558;2023-03-20T14:08:31;9.02;;;5.40;;
42912;SDS011;50720;54.324;18.558;2023-03-20T14:11:11;9.93;;;4.43;;
42912;SDS011;50720;54.324;18.558;2023-03-20T14:13:46;8.43;;;4.35;;
42912;SDS011;50720;54.324;18.558;2023-03-20T14:16:22;7.65;;;4.60;;
42912;SDS011;50720;54.324;18.558;2023-03-20T14:19:03;11.15;;;5.57;;
42912;SDS011;50720;54.324;18.558;2023-03-20T14:21:36;10.40;;;5.50;;
42912;SDS011;50720;54.324;18.558;2023-03-20T14:24:06;13.05;;;6.07;;
42912;SDS011;50720;54.324;18.558;2023-03-20T14:26:41;7.38;;;5.20;;
42912;SDS011;50720;54.324;18.558;2023-03-20T14:29:20;8.55;;;4.35;;
42912;SDS011;50720;54.324;18.558;2023-03-20T14:32:04;7.28;;;4.47;;
42912;SDS011;50720;54.324;18.558;2023-03-20T14:35:19;11.65;;;4.70;;
42912;SDS011;50720;54.324;18.558;2023-03-20T14:40:45;9.38;;;4.75;;
42912;SDS011;50720;54.324;18.558;2023-03-20T14:43:24;7.43;;;4.35;;
42912;SDS011;50720;54.324;18.558;2023-03-20T14:46:14;7.20;;;4.57;;
42912;SDS011;50720;54.324;18.558;2023-03-20T14:48:52;7.88;;;4.88;;
42912;SDS011;50720;54.324;18.558;2023-03-20T14:51:25;8.65;;;5.07;;
42912;SDS011;50720;54.324;18.558;2023-03-20T14:56:55;6.60;;;3.78;;
42912;SDS011;50720;54.324;18.558;2023-03-20T14:59:37;8.27;;;4.40;;
42912;SDS011;50720;54.324;18.558;2023-03-20T15:02:17;5.90;;;3.58;;
42912;SDS011;50720;54.324;18.558;2023-03-20T15:04:54;8.20;;;4.63;;
42912;SDS011;50720;54.324;18.558;2023-03-20T15:07:25;7.10;;;4.20;;
42912;SDS011;50720;54.324;18.558;2023-03-20T15:09:58;5.43;;;3.60;;
42912;SDS011;50720;54.324;18.558;2023-03-20T15:12:35;6.80;;;4.05;;
42912;SDS011;50720;54.324;18.558;2023-03-20T15:15:07;7.80;;;4.07;;
42912;SDS011;50720;54.324;18.558;2023-03-20T15:17:52;6.82;;;4.07;;
42912;SDS011;50720;54.324;18.558;2023-03-20T15:20:24;5.57;;;3.90;;
42912;SDS011;50720;54.324;18.558;2023-03-20T15:22:57;8.32;;;4.28;;
42912;SDS011;50720;54.324;18.558;2023-03-20T15:25:30;8.48;;;5.10;;
42912;SDS011;50720;54.324;18.558;2023-03-20T15:28:04;10.63;;;4.75;;
42912;SDS011;50720;54.324;18.558;2023-03-20T15:30:35;10.55;;;5.57;;
42912;SDS011;50720;54.324;18.558;2023-03-20T15:33:09;8.52;;;4.47;;
42912;SDS011;50720;54.324;18.558;2023-03-20T15:35:45;14.15;;;4.97;;
42912;SDS011;50720;54.324;18.558;2023-03-20T15:38:15;10.77;;;4.57;;
42912;SDS011;50720;54.324;18.558;2023-03-20T15:40:45;13.40;;;5.30;;